createdAt,value
2022-10-04T00:01:13.712Z,98409.00
2022-10-04T00:03:50.020Z,98404.00
2022-10-04T00:06:24.697Z,98399.00
2022-10-04T00:09:01.067Z,98405.00
2022-10-04T00:11:44.160Z,98394.00
2022-10-04T00:14:27.934Z,98385.00
2022-10-04T00:16:56.529Z,98382.00
2022-10-04T00:19:48.068Z,98384.00
2022-10-04T00:22:27.667Z,98374.00
2022-10-04T00:25:10.081Z,98368.00
2022-10-04T00:27:39.683Z,98371.00
2022-10-04T00:30:06.823Z,98377.00
2022-10-04T00:32:40.384Z,98379.00
2022-10-04T00:35:27.807Z,98385.00
2022-10-04T00:38:29.697Z,98368.00
2022-10-04T00:41:08.975Z,98378.00
2022-10-04T00:43:47.352Z,98380.00
2022-10-04T00:46:25.547Z,98380.00
2022-10-04T00:49:03.304Z,98382.00
2022-10-04T00:51:43.857Z,98378.00
2022-10-04T00:54:35.418Z,98374.00
2022-10-04T00:57:08.194Z,98380.00
2022-10-04T00:59:49.149Z,98374.00
2022-10-04T01:02:46.237Z,98372.00
2022-10-04T01:05:22.371Z,98355.00
2022-10-04T01:07:56.844Z,98350.00
2022-10-04T01:10:39.538Z,98365.00
2022-10-04T01:13:20.616Z,98360.00
2022-10-04T01:16:14.953Z,98361.00
2022-10-04T01:18:42.538Z,98368.00
2022-10-04T01:21:28.123Z,98359.00
2022-10-04T01:23:58.267Z,98364.00
2022-10-04T01:26:32.520Z,98365.00
2022-10-04T01:29:18.214Z,98368.00
2022-10-04T01:31:51.216Z,98357.00
2022-10-04T01:34:24.504Z,98361.00
2022-10-04T01:36:57.760Z,98341.00
2022-10-04T01:39:27.200Z,98350.00
2022-10-04T01:42:11.439Z,98341.00
2022-10-04T01:44:49.907Z,98338.00
2022-10-04T01:47:27.104Z,98340.00
2022-10-04T01:49:58.391Z,98346.00
2022-10-04T01:52:37.165Z,98351.00
2022-10-04T01:55:19.526Z,98350.00
2022-10-04T01:58:16.566Z,98352.00
2022-10-04T02:00:52.402Z,98346.00
2022-10-04T02:03:45.847Z,98347.00
2022-10-04T02:06:15.829Z,98349.00
2022-10-04T02:08:49.937Z,98352.00
2022-10-04T02:11:20.527Z,98361.00
2022-10-04T02:13:52.601Z,98355.00
2022-10-04T02:16:22.113Z,98339.00
2022-10-04T02:18:51.432Z,98332.00
2022-10-04T02:21:20.134Z,98336.00
2022-10-04T02:23:48.017Z,98330.00
2022-10-04T02:26:15.336Z,98334.00
2022-10-04T02:28:42.694Z,98338.00
2022-10-04T02:31:29.919Z,98333.00
2022-10-04T02:33:59.394Z,98327.00
2022-10-04T02:36:29.811Z,98335.00
2022-10-04T02:39:13.796Z,98336.00
2022-10-04T02:41:53.213Z,98340.00
2022-10-04T02:44:26.569Z,98338.00
2022-10-04T02:47:17.752Z,98339.00
2022-10-04T02:50:39.096Z,98338.00
2022-10-04T02:53:32.518Z,98343.00
2022-10-04T02:56:02.610Z,98336.00
2022-10-04T02:58:31.005Z,98341.00
2022-10-04T03:01:01.930Z,98342.00
2022-10-04T03:03:35.291Z,98351.00
2022-10-04T03:06:20.726Z,98347.00
2022-10-04T03:08:59.144Z,98350.00
2022-10-04T03:11:31.937Z,98347.00
2022-10-04T03:14:03.168Z,98342.00
2022-10-04T03:16:40.797Z,98349.00
2022-10-04T03:19:09.213Z,98352.00
2022-10-04T03:21:39.371Z,98345.00
2022-10-04T03:24:08.979Z,98342.00
2022-10-04T03:26:50.761Z,98345.00
2022-10-04T03:29:19.699Z,98327.00
2022-10-04T03:31:51.319Z,98320.00
2022-10-04T03:34:26.587Z,98315.00
2022-10-04T03:36:59.283Z,98317.00
2022-10-04T03:39:43.120Z,98317.00
2022-10-04T03:42:24.369Z,98322.00
2022-10-04T03:44:56.511Z,98322.00
2022-10-04T03:47:40.662Z,98318.00
2022-10-04T03:50:26.505Z,98330.00
2022-10-04T03:53:07.177Z,98324.00
2022-10-04T03:55:43.714Z,98333.00
2022-10-04T03:58:17.318Z,98322.00
2022-10-04T04:01:10.207Z,98322.00
2022-10-04T04:04:05.346Z,98325.00
2022-10-04T04:07:07.341Z,98329.00
2022-10-04T04:10:06.076Z,98332.00
2022-10-04T04:12:44.402Z,98335.00
2022-10-04T04:15:14.291Z,98328.00
2022-10-04T04:17:46.425Z,98324.00
2022-10-04T04:20:34.942Z,98331.00
2022-10-04T04:23:45.045Z,98335.00
2022-10-04T04:26:25.793Z,98331.00
2022-10-04T04:29:36.833Z,98335.00
2022-10-04T04:32:28.547Z,98331.00
2022-10-04T04:35:07.095Z,98335.00
2022-10-04T04:37:38.884Z,98321.00
2022-10-04T04:40:24.300Z,98326.00
2022-10-04T04:42:52.602Z,98335.00
2022-10-04T04:45:25.882Z,98337.00
2022-10-04T04:47:57.367Z,98336.00
2022-10-04T04:50:56.158Z,98326.00
2022-10-04T04:53:29.121Z,98340.00
2022-10-04T04:56:05.037Z,98331.00
2022-10-04T04:58:43.077Z,98340.00
2022-10-04T05:01:33.495Z,98334.00
2022-10-04T05:04:14.492Z,98333.00
2022-10-04T05:06:50.051Z,98336.00
2022-10-04T05:09:23.219Z,98340.00
2022-10-04T05:11:52.957Z,98354.00
2022-10-04T05:14:21.219Z,98347.00
2022-10-04T05:16:56.026Z,98339.00
2022-10-04T05:19:39.577Z,98338.00
2022-10-04T05:22:13.647Z,98338.00
2022-10-04T05:24:44.897Z,98339.00
2022-10-04T05:27:36.021Z,98350.00
2022-10-04T05:30:30.744Z,98356.00
2022-10-04T05:33:03.832Z,98355.00
2022-10-04T05:36:09.737Z,98361.00
2022-10-04T05:39:12.468Z,98357.00
2022-10-04T05:42:07.901Z,98340.00
2022-10-04T05:44:52.365Z,98351.00
2022-10-04T05:47:24.088Z,98354.00
2022-10-04T05:49:57.514Z,98368.00
2022-10-04T05:52:30.658Z,98351.00
2022-10-04T05:55:16.234Z,98359.00
2022-10-04T05:57:58.374Z,98355.00
2022-10-04T06:01:03.365Z,98359.00
2022-10-04T06:04:17.604Z,98359.00
2022-10-04T06:06:59.459Z,98357.00
2022-10-04T06:09:39.941Z,98364.00
2022-10-04T06:12:40.144Z,98351.00
2022-10-04T06:15:32.886Z,98347.00
2022-10-04T06:18:08.814Z,98356.00
2022-10-04T06:21:03.201Z,98345.00
2022-10-04T06:23:33.947Z,98348.00
2022-10-04T06:26:14.963Z,98339.00
2022-10-04T06:28:48.969Z,98334.00
2022-10-04T06:31:44.038Z,98331.00
2022-10-04T06:34:29.874Z,98343.00
2022-10-04T06:37:22.121Z,98340.00
2022-10-04T06:40:20.777Z,98354.00
2022-10-04T06:43:14.158Z,98377.00
2022-10-04T06:46:17.354Z,98388.00
2022-10-04T06:49:24.054Z,98390.00
2022-10-04T06:52:09.599Z,98391.00
2022-10-04T06:55:06.926Z,98391.00
2022-10-04T06:58:02.563Z,98382.00
2022-10-04T07:00:38.085Z,98373.00
2022-10-04T07:03:16.129Z,98360.00
2022-10-04T07:05:46.654Z,98361.00
2022-10-04T07:08:34.078Z,98354.00
2022-10-04T07:11:30.252Z,98362.00
2022-10-04T07:14:04.001Z,98351.00
2022-10-04T07:16:56.578Z,98346.00
2022-10-04T07:19:33.790Z,98346.00
2022-10-04T07:22:06.631Z,98360.00
2022-10-04T07:24:51.896Z,98369.00
2022-10-04T07:28:13.879Z,98387.00
2022-10-04T07:31:23.358Z,98375.00
2022-10-04T07:33:58.303Z,98372.00
2022-10-04T07:36:49.488Z,98368.00
2022-10-04T07:39:31.261Z,98383.00
2022-10-04T07:42:23.695Z,98381.00
2022-10-04T07:45:20.997Z,98369.00
2022-10-04T07:47:48.375Z,98364.00
2022-10-04T07:50:30.149Z,98361.00
2022-10-04T07:53:21.029Z,98356.00
2022-10-04T07:56:09.883Z,98368.00
2022-10-04T07:59:18.537Z,98383.00
2022-10-04T08:02:07.294Z,98381.00
2022-10-04T08:05:18.772Z,98386.00
2022-10-04T08:08:34.117Z,98393.00
2022-10-04T08:11:22.520Z,98388.00
2022-10-04T08:14:00.928Z,98388.00
2022-10-04T08:17:15.395Z,98380.00
2022-10-04T08:20:33.492Z,98374.00
2022-10-04T08:23:27.954Z,98385.00
2022-10-04T08:26:12.923Z,98394.00
2022-10-04T08:29:12.230Z,98383.00
2022-10-04T08:32:05.085Z,98372.00
2022-10-04T08:34:53.238Z,98365.00
2022-10-04T08:37:53.804Z,98373.00
2022-10-04T08:40:54.412Z,98383.00
2022-10-04T08:44:02.683Z,98371.00
2022-10-04T08:46:32.547Z,98344.00
2022-10-04T08:50:06.981Z,98345.00
2022-10-04T08:53:29.717Z,98370.00
2022-10-04T08:56:24.108Z,98374.00
2022-10-04T08:59:21.628Z,98386.00
2022-10-04T09:02:01.435Z,98387.00
2022-10-04T09:04:43.527Z,98387.00
2022-10-04T09:07:43.920Z,98375.00
2022-10-04T09:10:55.359Z,98361.00
2022-10-04T09:13:43.516Z,98367.00
2022-10-04T09:16:42.257Z,98370.00
2022-10-04T09:19:21.810Z,98377.00
2022-10-04T09:22:33.916Z,98376.00
2022-10-04T09:25:41.646Z,98385.00
2022-10-04T09:28:49.174Z,98384.00
2022-10-04T09:31:58.348Z,98385.00
2022-10-04T09:34:56.149Z,98384.00
2022-10-04T09:38:04.754Z,98394.00
2022-10-04T09:41:03.874Z,98388.00
2022-10-04T09:44:16.197Z,98389.00
2022-10-04T09:47:31.970Z,98377.00
2022-10-04T09:50:54.377Z,98378.00
2022-10-04T09:54:04.314Z,98378.00
2022-10-04T09:57:01.312Z,98380.00
2022-10-04T09:59:50.621Z,98368.00
2022-10-04T10:02:55.582Z,98376.00
2022-10-04T10:06:28.452Z,98392.00
2022-10-04T10:09:18.536Z,98385.00
2022-10-04T10:12:53.169Z,98381.00
2022-10-04T10:15:49.403Z,98376.00
2022-10-04T10:18:49.349Z,98376.00
2022-10-04T10:21:44.277Z,98372.00
2022-10-04T10:24:54.835Z,98372.00
2022-10-04T10:27:55.273Z,98381.00
2022-10-04T10:30:31.299Z,98378.00
2022-10-04T10:33:24.437Z,98377.00
2022-10-04T10:36:26.387Z,98373.00
2022-10-04T10:39:12.095Z,98373.00
2022-10-04T10:42:19.958Z,98384.00
2022-10-04T10:45:22.128Z,98377.00
2022-10-04T10:48:19.389Z,98381.00
2022-10-04T10:51:25.952Z,98377.00
2022-10-04T10:54:23.047Z,98379.00
2022-10-04T10:57:20.363Z,98381.00
2022-10-04T11:00:11.980Z,98369.00
2022-10-04T11:03:32.302Z,98376.00
2022-10-04T11:06:26.242Z,98380.00
2022-10-04T11:09:19.462Z,98380.00
2022-10-04T11:12:01.428Z,98373.00
2022-10-04T11:15:14.610Z,98366.00
2022-10-04T11:18:14.011Z,98367.00
2022-10-04T11:20:52.942Z,98361.00
2022-10-04T11:23:53.534Z,98365.00
2022-10-04T11:26:48.673Z,98369.00
2022-10-04T11:29:24.941Z,98359.00
2022-10-04T11:32:00.986Z,98359.00
2022-10-04T11:34:47.132Z,98358.00
2022-10-04T11:37:31.707Z,98362.00
2022-10-04T11:40:05.706Z,98354.00
2022-10-04T11:43:04.047Z,98356.00
2022-10-04T11:46:01.565Z,98361.00
2022-10-04T11:49:25.386Z,98358.00
2022-10-04T11:52:04.773Z,98360.00
2022-10-04T11:55:21.138Z,98353.00
2022-10-04T11:58:25.676Z,98361.00
2022-10-04T12:01:14.242Z,98358.00
2022-10-04T12:04:18.875Z,98347.00
2022-10-04T12:07:41.482Z,98349.00
2022-10-04T12:10:23.693Z,98348.00
2022-10-04T12:13:21.851Z,98342.00
2022-10-04T12:16:38.594Z,98334.00
2022-10-04T12:20:01.954Z,98340.00
2022-10-04T12:23:24.725Z,98339.00
2022-10-04T12:26:47.633Z,98341.00
2022-10-04T12:29:42.581Z,98332.00
2022-10-04T12:32:27.440Z,98336.00
2022-10-04T12:35:35.376Z,98335.00
2022-10-04T12:38:23.477Z,98322.00
2022-10-04T12:41:27.832Z,98322.00
2022-10-04T12:44:35.672Z,98315.00
2022-10-04T12:47:25.390Z,98316.00
2022-10-04T12:50:26.135Z,98311.00
2022-10-04T12:54:01.504Z,98310.00
2022-10-04T12:56:41.574Z,98308.00
2022-10-04T12:59:39.951Z,98305.00
2022-10-04T13:02:44.723Z,98299.00
2022-10-04T13:05:30.059Z,98290.00
2022-10-04T13:08:16.656Z,98299.00
2022-10-04T13:11:36.577Z,98301.00
2022-10-04T13:14:31.427Z,98297.00
2022-10-04T13:17:27.818Z,98298.00
2022-10-04T13:20:32.019Z,98300.00
2022-10-04T13:23:10.566Z,98296.00
2022-10-04T13:26:21.231Z,98298.00
2022-10-04T13:29:13.337Z,98303.00
2022-10-04T13:32:04.657Z,98301.00
2022-10-04T13:34:54.071Z,98304.00
2022-10-04T13:37:45.855Z,98303.00
2022-10-04T13:40:50.689Z,98295.00
2022-10-04T13:43:55.139Z,98295.00
2022-10-04T13:47:04.785Z,98307.00
2022-10-04T13:50:17.597Z,98304.00
2022-10-04T13:53:37.049Z,98308.00
2022-10-04T13:56:42.487Z,98309.00
2022-10-04T13:59:37.204Z,98309.00
2022-10-04T14:02:52.926Z,98298.00
2022-10-04T14:05:47.032Z,98306.00
2022-10-04T14:08:36.786Z,98304.00
2022-10-04T14:11:49.216Z,98299.00
2022-10-04T14:14:19.087Z,98307.00
2022-10-04T14:17:28.069Z,98314.00
2022-10-04T14:20:47.950Z,98307.00
2022-10-04T14:23:44.526Z,98308.00
2022-10-04T14:27:13.347Z,98316.00
2022-10-04T14:30:20.865Z,98305.00
2022-10-04T14:33:31.040Z,98308.00
2022-10-04T14:36:16.603Z,98308.00
2022-10-04T14:39:13.826Z,98310.00
2022-10-04T14:42:02.513Z,98307.00
2022-10-04T14:44:58.302Z,98304.00
2022-10-04T14:48:09.794Z,98305.00
2022-10-04T14:51:20.052Z,98305.00
2022-10-04T14:54:26.931Z,98310.00
2022-10-04T14:57:22.653Z,98306.00
2022-10-04T15:00:16.462Z,98307.00
2022-10-04T15:03:05.377Z,98315.00
2022-10-04T15:05:53.209Z,98306.00
2022-10-04T15:08:26.610Z,98302.00
2022-10-04T15:11:07.255Z,98303.00
2022-10-04T15:13:57.666Z,98302.00
2022-10-04T15:16:37.297Z,98300.00
2022-10-04T15:19:21.970Z,98303.00
2022-10-04T15:22:06.515Z,98302.00
2022-10-04T15:24:42.690Z,98303.00
2022-10-04T15:27:34.150Z,98303.00
2022-10-04T15:30:30.904Z,98303.00
2022-10-04T15:33:20.680Z,98304.00
2022-10-04T15:36:05.473Z,98306.00
2022-10-04T15:38:48.651Z,98300.00
2022-10-04T15:41:47.866Z,98301.00
2022-10-04T15:45:05.768Z,98304.00
2022-10-04T15:48:11.166Z,98299.00
2022-10-04T15:51:07.328Z,98307.00
2022-10-04T15:53:50.287Z,98307.00
2022-10-04T15:56:36.030Z,98303.00
2022-10-04T15:59:36.306Z,98303.00
2022-10-04T16:02:25.080Z,98307.00
2022-10-04T16:05:17.744Z,98310.00
2022-10-04T16:08:11.742Z,98302.00
2022-10-04T16:11:08.620Z,98303.00
2022-10-04T16:13:51.830Z,98304.00
2022-10-04T16:16:19.514Z,98298.00
2022-10-04T16:18:52.477Z,98300.00
2022-10-04T16:21:42.255Z,98305.00
2022-10-04T16:24:18.413Z,98308.00
2022-10-04T16:26:50.993Z,98305.00
2022-10-04T16:30:14.469Z,98306.00
2022-10-04T16:32:46.942Z,98306.00
2022-10-04T16:35:30.302Z,98313.00
2022-10-04T16:38:12.737Z,98311.00
2022-10-04T16:41:11.474Z,98307.00
2022-10-04T16:43:52.936Z,98305.00
2022-10-04T16:46:23.320Z,98304.00
2022-10-04T16:49:16.475Z,98302.00
2022-10-04T16:52:28.170Z,98308.00
2022-10-04T16:54:58.154Z,98318.00
2022-10-04T16:57:27.923Z,98313.00
2022-10-04T17:00:07.542Z,98303.00
2022-10-04T17:02:58.242Z,98302.00
2022-10-04T17:06:14.138Z,98298.00
2022-10-04T17:09:30.890Z,98294.00
2022-10-04T17:12:27.283Z,98299.00
2022-10-04T17:15:07.921Z,98300.00
2022-10-04T17:18:06.363Z,98298.00
2022-10-04T17:20:42.596Z,98302.00
2022-10-04T17:23:43.648Z,98309.00
2022-10-04T17:26:38.922Z,98295.00
2022-10-04T17:29:53.754Z,98299.00
2022-10-04T17:32:55.490Z,98299.00
2022-10-04T17:36:19.283Z,98299.00
2022-10-04T17:39:20.015Z,98305.00
2022-10-04T17:41:56.823Z,98305.00
2022-10-04T17:44:48.066Z,98304.00
2022-10-04T17:47:23.970Z,98309.00
2022-10-04T17:50:21.827Z,98312.00
2022-10-04T17:53:15.983Z,98312.00
2022-10-04T17:55:56.059Z,98318.00
2022-10-04T17:58:39.930Z,98321.00
2022-10-04T18:01:35.405Z,98318.00
2022-10-04T18:04:26.266Z,98320.00
2022-10-04T18:07:10.341Z,98318.00
2022-10-04T18:09:50.816Z,98322.00
2022-10-04T18:13:02.112Z,98328.00
2022-10-04T18:15:32.673Z,98326.00
2022-10-04T18:18:23.052Z,98328.00
2022-10-04T18:21:05.371Z,98334.00
2022-10-04T18:23:39.618Z,98328.00
2022-10-04T18:26:18.365Z,98324.00
2022-10-04T18:28:47.629Z,98329.00
2022-10-04T18:31:43.889Z,98312.00
2022-10-04T18:34:10.960Z,98310.00
2022-10-04T18:37:05.585Z,98311.00
2022-10-04T18:39:45.738Z,98307.00
2022-10-04T18:42:30.159Z,98307.00
2022-10-04T18:45:21.014Z,98304.00
2022-10-04T18:47:51.002Z,98311.00
2022-10-04T18:50:20.980Z,98312.00
2022-10-04T18:52:59.765Z,98305.00
2022-10-04T18:55:52.061Z,98315.00
2022-10-04T18:58:49.763Z,98307.00
2022-10-04T19:02:01.716Z,98302.00
2022-10-04T19:04:59.167Z,98308.00
2022-10-04T19:07:55.767Z,98303.00
2022-10-04T19:10:50.929Z,98304.00
2022-10-04T19:13:54.504Z,98319.00
2022-10-04T19:16:44.855Z,98318.00
2022-10-04T19:19:36.955Z,98315.00
2022-10-04T19:22:26.770Z,98321.00
2022-10-04T19:25:12.312Z,98312.00
2022-10-04T19:27:57.446Z,98314.00
2022-10-04T19:31:07.170Z,98318.00
2022-10-04T19:34:05.312Z,98316.00
2022-10-04T19:36:51.705Z,98323.00
2022-10-04T19:39:37.507Z,98330.00
2022-10-04T19:42:22.083Z,98329.00
2022-10-04T19:45:13.753Z,98328.00
2022-10-04T19:47:56.816Z,98338.00
2022-10-04T19:50:37.601Z,98335.00
2022-10-04T19:53:45.301Z,98346.00
2022-10-04T19:56:21.100Z,98345.00
2022-10-04T19:59:10.863Z,98342.00
2022-10-04T20:01:38.750Z,98335.00
2022-10-04T20:04:35.228Z,98338.00
2022-10-04T20:07:06.835Z,98345.00
2022-10-04T20:09:56.345Z,98340.00
2022-10-04T20:12:40.650Z,98346.00
2022-10-04T20:15:46.734Z,98358.00
2022-10-04T20:18:31.976Z,98361.00
2022-10-04T20:21:01.764Z,98356.00
2022-10-04T20:23:40.846Z,98350.00
2022-10-04T20:26:43.380Z,98344.00
2022-10-04T20:32:01.595Z,98353.00
2022-10-04T20:34:37.294Z,98346.00
2022-10-04T20:37:09.844Z,98348.00
2022-10-04T20:39:43.389Z,98360.00
2022-10-04T20:42:37.158Z,98363.00
2022-10-04T20:45:10.351Z,98361.00
2022-10-04T20:47:50.658Z,98351.00
2022-10-04T20:50:36.070Z,98352.00
2022-10-04T20:53:34.287Z,98345.00
2022-10-04T20:56:30.489Z,98334.00
2022-10-04T20:59:04.186Z,98338.00
2022-10-04T21:01:36.563Z,98335.00
2022-10-04T21:04:35.686Z,98339.00
2022-10-04T21:07:07.759Z,98341.00
2022-10-04T21:09:37.253Z,98349.00
2022-10-04T21:12:07.629Z,98366.00
2022-10-04T21:14:37.329Z,98369.00
2022-10-04T21:17:26.555Z,98357.00
2022-10-04T21:19:53.683Z,98371.00
2022-10-04T21:22:26.798Z,98367.00
2022-10-04T21:24:57.151Z,98360.00
2022-10-04T21:27:43.507Z,98357.00
2022-10-04T21:30:17.253Z,98367.00
2022-10-04T21:32:44.601Z,98354.00
2022-10-04T21:35:12.814Z,98355.00
2022-10-04T21:37:40.143Z,98362.00
2022-10-04T21:40:08.735Z,98378.00
2022-10-04T21:42:36.066Z,98381.00
2022-10-04T21:45:03.402Z,98390.00
2022-10-04T21:47:30.484Z,98389.00
2022-10-04T21:49:57.697Z,98379.00
2022-10-04T21:52:25.083Z,98378.00
2022-10-04T21:54:52.262Z,98381.00
2022-10-04T21:57:19.320Z,98381.00
2022-10-04T21:59:47.376Z,98376.00
2022-10-04T22:02:14.491Z,98377.00
2022-10-04T22:04:41.937Z,98375.00
2022-10-04T22:07:10.780Z,98365.00
2022-10-04T22:09:38.128Z,98374.00
2022-10-04T22:12:05.362Z,98384.00
2022-10-04T22:14:32.389Z,98378.00
2022-10-04T22:16:59.624Z,98378.00
2022-10-04T22:19:26.715Z,98378.00
2022-10-04T22:21:53.962Z,98384.00
2022-10-04T22:24:21.665Z,98382.00
2022-10-04T22:26:49.345Z,98387.00
2022-10-04T22:29:18.322Z,98385.00
2022-10-04T22:31:53.155Z,98396.00
2022-10-04T22:34:22.895Z,98398.00
2022-10-04T22:36:54.316Z,98392.00
2022-10-04T22:39:22.022Z,98396.00
2022-10-04T22:41:58.474Z,98407.00
2022-10-04T22:44:37.412Z,98402.00
2022-10-04T22:47:11.561Z,98399.00
2022-10-04T22:49:42.863Z,98401.00
2022-10-04T22:52:17.447Z,98400.00
2022-10-04T22:54:53.416Z,98398.00
2022-10-04T22:57:20.861Z,98403.00
2022-10-04T22:59:51.584Z,98405.00
2022-10-04T23:02:28.300Z,98394.00
2022-10-04T23:05:19.242Z,98403.00
2022-10-04T23:07:48.003Z,98387.00
2022-10-04T23:10:18.975Z,98395.00
2022-10-04T23:12:49.589Z,98394.00
2022-10-04T23:15:20.774Z,98394.00
2022-10-04T23:17:55.584Z,98406.00
2022-10-04T23:20:23.842Z,98393.00
2022-10-04T23:22:53.686Z,98393.00
2022-10-04T23:25:28.791Z,98387.00
2022-10-04T23:28:02.208Z,98385.00
2022-10-04T23:30:29.600Z,98382.00
2022-10-04T23:33:00.655Z,98377.00
2022-10-04T23:35:33.032Z,98377.00
2022-10-04T23:38:03.699Z,98382.00
2022-10-04T23:40:30.994Z,98392.00
2022-10-04T23:42:59.914Z,98396.00
2022-10-04T23:45:27.269Z,98399.00
2022-10-04T23:47:59.294Z,98408.00
2022-10-04T23:50:32.784Z,98400.00
2022-10-04T23:53:04.794Z,98396.00
2022-10-04T23:55:39.347Z,98402.00
2022-10-04T23:58:19.510Z,98402.00
